createdAt,value
2022-12-17T00:00:48.406Z,7.81
2022-12-17T00:01:51.215Z,7.79
2022-12-17T00:02:53.952Z,7.66
2022-12-17T00:03:56.864Z,7.94
2022-12-17T00:04:59.035Z,7.36
2022-12-17T00:06:00.850Z,7.54
2022-12-17T00:07:02.658Z,7.48
2022-12-17T00:08:04.489Z,7.30
2022-12-17T00:09:06.447Z,8.21
2022-12-17T00:10:08.799Z,8.29
2022-12-17T00:11:10.634Z,9.01
2022-12-17T00:12:12.676Z,9.90
2022-12-17T00:13:14.468Z,9.81
2022-12-17T00:14:16.338Z,9.04
2022-12-17T00:15:18.181Z,10.17
2022-12-17T00:16:20.171Z,9.61
2022-12-17T00:17:22.123Z,9.34
2022-12-17T00:18:23.954Z,9.12
2022-12-17T00:19:25.806Z,9.38
2022-12-17T00:20:27.730Z,9.10
2022-12-17T00:21:29.559Z,9.19
2022-12-17T00:22:31.397Z,8.24
2022-12-17T00:23:33.580Z,8.66
2022-12-17T00:24:35.659Z,7.73
2022-12-17T00:25:37.462Z,8.34
2022-12-17T00:26:40.192Z,7.53
2022-12-17T00:27:42.220Z,7.92
2022-12-17T00:28:44.054Z,8.28
2022-12-17T00:29:45.919Z,8.08
2022-12-17T00:30:47.938Z,8.19
2022-12-17T00:31:49.842Z,7.75
2022-12-17T00:32:51.740Z,8.17
2022-12-17T00:33:53.543Z,8.13
2022-12-17T00:34:55.614Z,8.40
2022-12-17T00:35:58.629Z,9.37
2022-12-17T00:37:00.443Z,9.76
2022-12-17T00:38:02.267Z,10.66
2022-12-17T00:39:04.081Z,10.50
2022-12-17T00:40:06.242Z,10.19
2022-12-17T00:41:08.086Z,9.77
2022-12-17T00:42:09.929Z,8.56
2022-12-17T00:43:11.814Z,8.69
2022-12-17T00:44:13.628Z,7.74
2022-12-17T00:45:15.498Z,7.49
2022-12-17T00:46:17.419Z,8.51
2022-12-17T00:47:19.340Z,7.54
2022-12-17T00:48:21.168Z,7.13
2022-12-17T00:49:23.004Z,7.25
2022-12-17T00:50:24.869Z,6.74
2022-12-17T00:51:26.678Z,6.83
2022-12-17T00:52:28.489Z,6.27
2022-12-17T00:53:30.414Z,6.69
2022-12-17T00:54:32.226Z,6.99
2022-12-17T00:55:34.095Z,6.27
2022-12-17T00:56:35.902Z,6.61
2022-12-17T00:57:37.730Z,6.38
2022-12-17T00:58:39.583Z,6.71
2022-12-17T00:59:41.392Z,6.63
2022-12-17T01:00:43.508Z,5.89
2022-12-17T01:01:45.398Z,5.89
2022-12-17T01:02:47.475Z,6.45
2022-12-17T01:03:49.412Z,6.27
2022-12-17T01:04:51.231Z,6.47
2022-12-17T01:05:54.097Z,6.38
2022-12-17T01:06:55.905Z,6.98
2022-12-17T01:07:58.354Z,8.98
2022-12-17T01:09:00.174Z,8.29
2022-12-17T01:10:02.002Z,7.19
2022-12-17T01:11:03.881Z,7.60
2022-12-17T01:12:05.702Z,6.88
2022-12-17T01:13:07.509Z,6.01
2022-12-17T01:14:09.602Z,5.97
2022-12-17T01:15:11.415Z,5.84
2022-12-17T01:16:14.531Z,5.31
2022-12-17T01:17:16.303Z,5.44
2022-12-17T01:18:18.113Z,5.29
2022-12-17T01:19:20.108Z,4.81
2022-12-17T01:20:22.247Z,5.00
2022-12-17T01:21:24.094Z,5.08
2022-12-17T01:22:25.902Z,5.33
2022-12-17T01:23:27.730Z,5.72
2022-12-17T01:24:29.541Z,5.26
2022-12-17T01:25:31.350Z,5.39
2022-12-17T01:26:33.295Z,5.54
2022-12-17T01:27:35.112Z,5.39
2022-12-17T01:28:36.947Z,5.11
2022-12-17T01:29:38.847Z,5.60
2022-12-17T01:30:40.749Z,5.18
2022-12-17T01:31:42.639Z,5.15
2022-12-17T01:32:44.528Z,5.21
2022-12-17T01:33:46.340Z,4.91
2022-12-17T01:34:48.150Z,4.68
2022-12-17T01:35:50.332Z,4.63
2022-12-17T01:36:52.304Z,5.88
2022-12-17T01:37:54.109Z,5.01
2022-12-17T01:38:55.930Z,5.71
2022-12-17T01:39:57.748Z,6.14
2022-12-17T01:40:59.759Z,5.53
2022-12-17T01:42:01.602Z,5.32
2022-12-17T01:43:03.435Z,5.53
2022-12-17T01:44:05.230Z,6.31
2022-12-17T01:45:07.059Z,5.85
2022-12-17T01:46:09.445Z,6.60
2022-12-17T01:47:11.221Z,6.04
2022-12-17T01:48:13.039Z,6.11
2022-12-17T01:49:14.855Z,6.24
2022-12-17T01:50:16.781Z,5.29
2022-12-17T01:51:18.609Z,5.26
2022-12-17T01:52:20.454Z,5.34
2022-12-17T01:53:22.271Z,4.87
2022-12-17T01:54:24.082Z,5.32
2022-12-17T01:55:25.901Z,5.06
2022-12-17T01:56:27.830Z,5.22
2022-12-17T01:57:29.683Z,5.65
2022-12-17T01:58:31.511Z,5.22
2022-12-17T01:59:33.341Z,5.48
2022-12-17T02:00:35.408Z,5.07
2022-12-17T02:01:37.301Z,4.96
2022-12-17T02:02:39.346Z,4.63
2022-12-17T02:03:41.260Z,4.40
2022-12-17T02:04:43.075Z,4.45
2022-12-17T02:05:44.897Z,4.39
2022-12-17T02:06:47.023Z,5.06
2022-12-17T02:07:48.921Z,4.57
2022-12-17T02:08:50.805Z,4.69
2022-12-17T02:09:52.610Z,4.74
2022-12-17T02:10:56.492Z,5.20
2022-12-17T02:11:58.039Z,5.05
2022-12-17T02:12:59.898Z,4.65
2022-12-17T02:14:01.721Z,4.03
2022-12-17T02:15:03.526Z,4.76
2022-12-17T02:16:06.079Z,5.39
2022-12-17T02:17:07.934Z,4.39
2022-12-17T02:18:09.776Z,4.55
2022-12-17T02:19:11.596Z,4.60
2022-12-17T02:20:13.528Z,4.40
2022-12-17T02:21:15.332Z,4.39
2022-12-17T02:22:17.141Z,5.17
2022-12-17T02:23:19.018Z,4.47
2022-12-17T02:24:20.852Z,4.51
2022-12-17T02:25:22.651Z,4.09
2022-12-17T02:26:24.566Z,4.58
2022-12-17T02:27:26.383Z,4.09
2022-12-17T02:28:28.234Z,4.58
2022-12-17T02:29:30.039Z,4.19
2022-12-17T02:30:31.853Z,4.31
2022-12-17T02:31:33.783Z,4.55
2022-12-17T02:32:35.584Z,4.87
2022-12-17T02:33:37.718Z,5.62
2022-12-17T02:34:39.751Z,4.93
2022-12-17T02:35:41.581Z,5.78
2022-12-17T02:36:44.508Z,4.51
2022-12-17T02:37:46.341Z,4.84
2022-12-17T02:38:48.215Z,5.05
2022-12-17T02:39:50.041Z,4.55
2022-12-17T02:40:51.840Z,4.69
2022-12-17T02:41:53.968Z,4.30
2022-12-17T02:42:55.803Z,5.11
2022-12-17T02:43:57.656Z,4.88
2022-12-17T02:44:59.463Z,4.98
2022-12-17T02:46:01.389Z,5.06
2022-12-17T02:47:03.286Z,5.05
2022-12-17T02:48:05.095Z,4.73
2022-12-17T02:49:06.944Z,5.43
2022-12-17T02:50:08.960Z,5.33
2022-12-17T02:51:10.788Z,5.41
2022-12-17T02:52:12.588Z,5.17
2022-12-17T02:53:14.392Z,5.03
2022-12-17T02:54:16.254Z,5.27
2022-12-17T02:55:18.077Z,5.60
2022-12-17T02:56:19.876Z,5.06
2022-12-17T02:57:21.683Z,5.55
2022-12-17T02:58:23.479Z,5.75
2022-12-17T02:59:25.323Z,5.46
2022-12-17T03:00:27.247Z,6.40
2022-12-17T03:01:29.119Z,6.51
2022-12-17T03:02:31.153Z,7.28
2022-12-17T03:03:33.271Z,7.53
2022-12-17T03:04:35.211Z,6.35
2022-12-17T03:05:45.144Z,5.82
2022-12-17T03:06:40.657Z,5.92
2022-12-17T03:07:42.458Z,5.92
2022-12-17T03:08:44.256Z,5.55
2022-12-17T03:09:46.087Z,5.33
2022-12-17T03:10:47.987Z,5.53
2022-12-17T03:11:49.798Z,5.36
2022-12-17T03:12:51.603Z,5.45
2022-12-17T03:13:53.403Z,4.93
2022-12-17T03:14:55.470Z,5.49
2022-12-17T03:15:57.289Z,6.13
2022-12-17T03:16:59.297Z,5.59
2022-12-17T03:18:01.210Z,6.17
2022-12-17T03:19:03.017Z,6.06
2022-12-17T03:20:04.935Z,5.91
2022-12-17T03:21:06.740Z,5.51
2022-12-17T03:22:08.539Z,5.63
2022-12-17T03:23:10.337Z,5.59
2022-12-17T03:24:12.149Z,5.65
2022-12-17T03:25:13.999Z,6.17
2022-12-17T03:26:15.807Z,5.57
2022-12-17T03:27:17.626Z,5.37
2022-12-17T03:28:19.440Z,5.19
2022-12-17T03:29:21.231Z,4.96
2022-12-17T03:30:23.161Z,5.77
2022-12-17T03:31:25.021Z,5.25
2022-12-17T03:32:26.863Z,4.87
2022-12-17T03:33:28.697Z,5.35
2022-12-17T03:34:30.511Z,5.27
2022-12-17T03:35:32.351Z,5.43
2022-12-17T03:36:34.266Z,4.99
2022-12-17T03:37:36.071Z,4.74
2022-12-17T03:38:37.880Z,5.07
2022-12-17T03:39:39.699Z,4.79
2022-12-17T03:40:41.565Z,4.56
2022-12-17T03:41:43.363Z,4.09
2022-12-17T03:42:45.168Z,4.90
2022-12-17T03:43:46.969Z,4.07
2022-12-17T03:44:48.749Z,4.45
2022-12-17T03:45:50.683Z,4.09
2022-12-17T03:46:52.763Z,4.08
2022-12-17T03:47:54.749Z,4.39
2022-12-17T03:48:56.728Z,3.72
2022-12-17T03:49:58.535Z,4.33
2022-12-17T03:51:01.393Z,3.72
2022-12-17T03:52:03.192Z,3.66
2022-12-17T03:53:05.015Z,3.71
2022-12-17T03:54:06.793Z,4.15
2022-12-17T03:55:08.616Z,3.89
2022-12-17T03:56:10.992Z,3.51
2022-12-17T03:57:16.032Z,3.77
2022-12-17T03:58:16.470Z,3.74
2022-12-17T03:59:18.291Z,3.65
2022-12-17T04:00:20.111Z,4.08
2022-12-17T04:01:22.053Z,3.61
2022-12-17T04:02:24.007Z,3.56
2022-12-17T04:03:25.979Z,3.83
2022-12-17T04:04:27.890Z,3.97
2022-12-17T04:05:29.704Z,3.67
2022-12-17T04:06:31.743Z,3.79
2022-12-17T04:07:33.557Z,3.64
2022-12-17T04:08:35.364Z,3.63
2022-12-17T04:09:37.153Z,3.41
2022-12-17T04:10:39.171Z,3.35
2022-12-17T04:11:42.054Z,3.81
2022-12-17T04:12:43.843Z,3.53
2022-12-17T04:13:45.974Z,3.81
2022-12-17T04:14:47.980Z,3.98
2022-12-17T04:15:49.852Z,3.54
2022-12-17T04:16:52.121Z,3.69
2022-12-17T04:17:53.954Z,4.26
2022-12-17T04:18:55.747Z,4.10
2022-12-17T04:19:57.597Z,3.38
2022-12-17T04:20:59.613Z,3.49
2022-12-17T04:22:01.438Z,3.21
2022-12-17T04:23:03.249Z,3.45
2022-12-17T04:24:05.068Z,3.45
2022-12-17T04:25:06.892Z,3.56
2022-12-17T04:26:09.007Z,3.53
2022-12-17T04:27:10.882Z,3.18
2022-12-17T04:28:12.711Z,4.44
2022-12-17T04:29:14.521Z,3.81
2022-12-17T04:30:16.344Z,3.53
2022-12-17T04:31:18.181Z,3.47
2022-12-17T04:32:19.980Z,3.51
2022-12-17T04:33:21.777Z,3.72
2022-12-17T04:34:23.601Z,3.35
2022-12-17T04:35:25.426Z,3.71
2022-12-17T04:36:27.591Z,3.42
2022-12-17T04:37:29.432Z,3.40
2022-12-17T04:38:31.250Z,3.57
2022-12-17T04:39:33.050Z,7.89
2022-12-17T04:40:35.142Z,4.59
2022-12-17T04:41:36.936Z,3.70
2022-12-17T04:42:38.786Z,3.78
2022-12-17T04:43:40.591Z,3.82
2022-12-17T04:44:42.403Z,4.36
2022-12-17T04:45:44.199Z,3.65
2022-12-17T04:46:46.227Z,4.28
2022-12-17T04:47:48.160Z,3.85
2022-12-17T04:48:49.962Z,4.13
2022-12-17T04:49:51.776Z,4.09
2022-12-17T04:50:53.603Z,3.98
2022-12-17T04:51:55.711Z,4.37
2022-12-17T04:52:57.545Z,4.29
2022-12-17T04:53:59.241Z,4.54
2022-12-17T04:55:01.048Z,4.72
2022-12-17T04:56:02.871Z,4.76
2022-12-17T04:57:04.694Z,5.06
2022-12-17T04:58:06.546Z,4.97
2022-12-17T04:59:08.350Z,5.44
2022-12-17T05:00:10.477Z,5.79
2022-12-17T05:01:12.424Z,5.36
2022-12-17T05:02:14.473Z,6.39
2022-12-17T05:04:38.997Z,7.38
2022-12-17T05:05:40.787Z,10.08
2022-12-17T05:06:42.691Z,11.95
2022-12-17T05:07:44.483Z,10.64
2022-12-17T05:08:46.328Z,11.11
2022-12-17T05:09:48.141Z,9.08
2022-12-17T05:10:49.945Z,9.79
2022-12-17T05:11:51.968Z,12.41
2022-12-17T05:12:53.755Z,10.88
2022-12-17T05:13:55.795Z,9.59
2022-12-17T05:14:57.613Z,8.20
2022-12-17T05:15:59.486Z,8.27
2022-12-17T05:17:01.412Z,6.47
2022-12-17T05:18:03.220Z,6.29
2022-12-17T05:19:05.078Z,6.39
2022-12-17T05:20:07.504Z,6.52
2022-12-17T05:21:09.318Z,6.64
2022-12-17T05:22:11.178Z,6.19
2022-12-17T05:23:12.989Z,6.85
2022-12-17T05:24:14.830Z,6.45
2022-12-17T05:25:16.643Z,6.51
2022-12-17T05:26:18.680Z,7.70
2022-12-17T05:27:20.481Z,11.46
2022-12-17T05:28:22.297Z,15.18
2022-12-17T05:29:24.156Z,13.70
2022-12-17T05:30:26.072Z,13.68
2022-12-17T05:31:27.936Z,12.69
2022-12-17T05:32:29.699Z,16.34
2022-12-17T05:33:31.528Z,13.65
2022-12-17T05:34:33.394Z,12.97
2022-12-17T05:35:35.197Z,10.97
2022-12-17T05:36:37.003Z,10.07
2022-12-17T05:37:38.856Z,9.41
2022-12-17T05:38:41.057Z,11.86
2022-12-17T05:39:42.916Z,12.32
2022-12-17T05:40:44.751Z,10.03
2022-12-17T05:41:46.556Z,8.28
2022-12-17T05:42:48.372Z,6.61
2022-12-17T05:43:50.177Z,6.19
2022-12-17T05:44:52.041Z,6.23
2022-12-17T05:45:53.867Z,5.70
2022-12-17T05:46:55.856Z,5.29
2022-12-17T05:47:57.715Z,4.87
2022-12-17T05:48:59.540Z,4.79
2022-12-17T05:50:01.394Z,5.19
2022-12-17T05:51:03.193Z,6.09
2022-12-17T05:52:05.001Z,8.30
2022-12-17T05:53:06.834Z,17.21
2022-12-17T05:54:08.649Z,15.81
2022-12-17T05:55:10.508Z,14.46
2022-12-17T05:56:12.322Z,12.21
2022-12-17T05:57:14.128Z,10.29
2022-12-17T05:58:15.943Z,8.76
2022-12-17T05:59:17.758Z,7.14
2022-12-17T06:00:19.721Z,6.74
2022-12-17T06:01:21.582Z,6.27
2022-12-17T06:02:23.465Z,6.77
2022-12-17T06:03:25.326Z,6.20
2022-12-17T06:04:27.165Z,6.53
2022-12-17T06:05:29.022Z,6.97
2022-12-17T06:06:30.851Z,7.70
2022-12-17T06:07:32.665Z,7.72
2022-12-17T06:08:34.554Z,9.55
2022-12-17T06:09:36.369Z,17.44
2022-12-17T06:10:38.360Z,18.69
2022-12-17T06:11:40.178Z,17.56
2022-12-17T06:12:41.982Z,15.22
2022-12-17T06:13:43.787Z,13.29
2022-12-17T06:14:45.616Z,11.34
2022-12-17T06:15:47.616Z,9.65
2022-12-17T06:16:49.461Z,9.45
2022-12-17T06:17:51.278Z,10.10
2022-12-17T06:18:53.107Z,11.22
2022-12-17T06:19:54.976Z,10.85
2022-12-17T06:20:57.013Z,11.08
2022-12-17T06:21:58.911Z,10.72
2022-12-17T06:23:00.759Z,14.39
2022-12-17T06:24:02.691Z,19.93
2022-12-17T06:25:04.498Z,21.62
2022-12-17T06:26:06.677Z,25.74
2022-12-17T06:27:08.507Z,25.02
2022-12-17T06:28:10.373Z,23.09
2022-12-17T06:29:12.191Z,18.97
2022-12-17T06:30:18.452Z,15.88
2022-12-17T06:31:17.959Z,14.44
2022-12-17T06:32:19.754Z,13.56
2022-12-17T06:33:21.607Z,12.39
2022-12-17T06:34:23.414Z,11.74
2022-12-17T06:35:25.234Z,10.91
2022-12-17T06:36:27.273Z,9.70
2022-12-17T06:37:29.134Z,9.27
2022-12-17T06:38:30.940Z,8.66
2022-12-17T06:39:32.908Z,7.87
2022-12-17T06:40:34.826Z,8.01
2022-12-17T06:41:36.700Z,9.91
2022-12-17T06:42:38.505Z,9.16
2022-12-17T06:43:40.373Z,9.09
2022-12-17T06:44:42.177Z,10.35
2022-12-17T06:45:44.121Z,12.28
2022-12-17T06:46:46.337Z,10.87
2022-12-17T06:47:48.193Z,9.10
2022-12-17T06:48:50.014Z,10.64
2022-12-17T06:49:54.381Z,9.87
2022-12-17T06:50:55.453Z,9.64
2022-12-17T06:51:57.292Z,11.85
2022-12-17T06:52:59.124Z,12.07
2022-12-17T06:54:01.023Z,11.72
2022-12-17T06:55:02.826Z,13.04
2022-12-17T06:56:04.844Z,14.05
2022-12-17T06:57:06.722Z,11.79
2022-12-17T06:58:08.546Z,11.84
2022-12-17T06:59:10.364Z,12.39
2022-12-17T07:00:12.175Z,11.51
2022-12-17T07:01:14.129Z,12.56
2022-12-17T07:02:16.135Z,11.69
2022-12-17T07:03:18.125Z,10.92
2022-12-17T07:04:19.896Z,13.78
2022-12-17T07:05:21.730Z,20.00
2022-12-17T07:06:23.632Z,29.27
2022-12-17T07:07:25.491Z,30.32
2022-12-17T07:08:27.308Z,35.40
2022-12-17T07:09:29.133Z,27.84
2022-12-17T07:10:31.078Z,23.21
2022-12-17T07:11:32.940Z,17.73
2022-12-17T07:12:34.848Z,16.68
2022-12-17T07:13:37.013Z,14.70
2022-12-17T07:14:38.982Z,18.07
2022-12-17T07:15:40.798Z,15.68
2022-12-17T07:16:42.681Z,13.23
2022-12-17T07:17:44.558Z,13.37
2022-12-17T07:18:46.392Z,13.29
2022-12-17T07:19:48.214Z,13.46
2022-12-17T07:20:50.223Z,13.37
2022-12-17T07:21:52.017Z,12.68
2022-12-17T07:22:53.855Z,12.37
2022-12-17T07:23:55.680Z,12.44
2022-12-17T07:24:57.501Z,12.23
2022-12-17T07:25:59.436Z,11.37
2022-12-17T07:27:01.459Z,11.28
2022-12-17T07:28:03.317Z,10.89
2022-12-17T07:29:05.154Z,10.20
2022-12-17T07:30:07.776Z,10.64
2022-12-17T07:31:09.636Z,11.37
2022-12-17T07:32:11.554Z,10.97
2022-12-17T07:33:13.394Z,10.27
2022-12-17T07:34:15.210Z,11.27
2022-12-17T07:35:17.025Z,15.25
2022-12-17T07:36:18.922Z,16.92
2022-12-17T07:37:20.914Z,17.68
2022-12-17T07:38:22.833Z,15.03
2022-12-17T07:39:24.653Z,13.30
2022-12-17T07:40:26.739Z,13.17
2022-12-17T07:41:28.792Z,10.77
2022-12-17T07:42:30.593Z,10.79
2022-12-17T07:43:32.426Z,11.46
2022-12-17T07:44:34.231Z,11.28
2022-12-17T07:45:36.086Z,11.27
2022-12-17T07:46:37.961Z,10.35
2022-12-17T07:47:39.778Z,10.28
2022-12-17T07:48:41.616Z,10.54
2022-12-17T07:49:43.458Z,10.94
2022-12-17T07:50:45.495Z,9.47
2022-12-17T07:51:47.338Z,10.52
2022-12-17T07:52:49.142Z,9.97
2022-12-17T07:53:50.986Z,10.69
2022-12-17T07:54:52.805Z,10.75
2022-12-17T07:55:54.616Z,11.38
2022-12-17T07:56:56.635Z,9.91
2022-12-17T07:57:58.456Z,11.04
2022-12-17T07:59:00.308Z,10.32
2022-12-17T08:00:02.321Z,10.45
2022-12-17T08:01:04.336Z,10.55
2022-12-17T08:02:06.303Z,11.08
2022-12-17T08:03:08.469Z,11.16
2022-12-17T08:04:10.544Z,10.05
2022-12-17T08:05:12.353Z,12.81
2022-12-17T08:06:14.168Z,12.33
2022-12-17T08:07:15.946Z,18.01
2022-12-17T08:08:17.757Z,16.16
2022-12-17T08:09:19.620Z,14.86
2022-12-17T08:10:21.660Z,14.91
2022-12-17T08:11:23.493Z,14.23
2022-12-17T08:12:25.435Z,12.81
2022-12-17T08:13:27.265Z,12.11
2022-12-17T08:14:29.102Z,11.80
2022-12-17T08:15:30.924Z,11.35
2022-12-17T08:16:32.997Z,11.34
2022-12-17T08:17:34.822Z,10.37
2022-12-17T08:18:36.743Z,11.08
2022-12-17T08:19:38.590Z,9.55
2022-12-17T08:20:40.587Z,10.29
2022-12-17T08:21:42.399Z,9.88
2022-12-17T08:22:44.243Z,9.44
2022-12-17T08:23:46.094Z,9.57
2022-12-17T08:24:47.943Z,9.89
2022-12-17T08:25:49.767Z,10.23
2022-12-17T08:26:51.700Z,10.29
2022-12-17T08:27:53.595Z,10.38
2022-12-17T08:28:55.416Z,11.34
2022-12-17T08:29:57.344Z,10.81
2022-12-17T08:30:59.357Z,11.24
2022-12-17T08:32:01.202Z,11.85
2022-12-17T08:33:02.993Z,12.55
2022-12-17T08:34:07.897Z,13.77
2022-12-17T08:35:08.454Z,13.43
2022-12-17T08:36:10.398Z,14.26
2022-12-17T08:37:12.209Z,15.72
2022-12-17T08:38:13.996Z,15.46
2022-12-17T08:39:15.828Z,15.57
2022-12-17T08:40:17.698Z,12.71
2022-12-17T08:41:19.520Z,12.40
2022-12-17T08:42:21.352Z,11.43
2022-12-17T08:43:23.173Z,12.65
2022-12-17T08:44:24.965Z,11.76
2022-12-17T08:45:26.817Z,12.86
2022-12-17T08:46:28.782Z,12.02
2022-12-17T08:47:30.732Z,10.92
2022-12-17T08:48:32.558Z,9.69
2022-12-17T08:49:34.407Z,10.31
2022-12-17T08:50:36.260Z,10.69
2022-12-17T08:51:38.076Z,10.83
2022-12-17T08:52:39.904Z,11.98
2022-12-17T08:53:42.453Z,11.44
2022-12-17T08:54:44.367Z,11.07
2022-12-17T08:55:46.196Z,10.25
2022-12-17T08:56:48.307Z,10.75
2022-12-17T08:57:50.129Z,10.33
2022-12-17T08:58:57.193Z,11.30
2022-12-17T08:59:55.638Z,12.98
2022-12-17T09:00:57.548Z,11.65
2022-12-17T09:01:59.619Z,11.17
2022-12-17T09:03:01.797Z,11.11
2022-12-17T09:04:03.624Z,10.52
2022-12-17T09:05:05.464Z,11.57
2022-12-17T09:06:07.845Z,10.85
2022-12-17T09:07:09.641Z,12.49
2022-12-17T09:08:11.503Z,11.28
2022-12-17T09:09:13.285Z,12.23
2022-12-17T09:10:15.073Z,11.85
2022-12-17T09:11:16.926Z,11.77
2022-12-17T09:12:18.758Z,11.02
2022-12-17T09:13:20.562Z,10.65
2022-12-17T09:14:22.417Z,11.19
2022-12-17T09:15:24.232Z,12.41
2022-12-17T09:16:26.330Z,12.20
2022-12-17T09:17:28.116Z,10.85
2022-12-17T09:18:29.945Z,10.46
2022-12-17T09:19:31.832Z,11.21
2022-12-17T09:20:33.957Z,11.21
2022-12-17T09:21:35.815Z,11.07
2022-12-17T09:22:37.634Z,10.86
2022-12-17T09:23:39.728Z,11.06
2022-12-17T09:24:41.769Z,11.65
2022-12-17T09:25:43.613Z,10.77
2022-12-17T09:26:45.670Z,11.49
2022-12-17T09:27:47.481Z,11.48
2022-12-17T09:28:49.302Z,13.61
2022-12-17T09:29:51.196Z,22.57
2022-12-17T09:30:53.733Z,24.68
2022-12-17T09:31:55.654Z,22.90
2022-12-17T09:32:57.534Z,19.61
2022-12-17T09:33:59.280Z,18.84
2022-12-17T09:35:01.108Z,18.96
2022-12-17T09:36:02.940Z,18.74
2022-12-17T09:37:04.787Z,18.50
2022-12-17T09:38:06.595Z,18.79
2022-12-17T09:39:08.403Z,18.99
2022-12-17T09:40:11.061Z,20.60
2022-12-17T09:41:12.888Z,22.00
2022-12-17T09:42:14.779Z,20.59
2022-12-17T09:43:16.589Z,19.39
2022-12-17T09:44:18.407Z,18.67
2022-12-17T09:45:20.256Z,22.03
2022-12-17T09:46:22.131Z,24.43
2022-12-17T09:47:23.924Z,22.54
2022-12-17T09:48:29.478Z,20.25
2022-12-17T09:49:29.363Z,22.89
2022-12-17T09:50:31.786Z,22.16
2022-12-17T09:51:33.616Z,23.40
2022-12-17T09:52:35.463Z,31.37
2022-12-17T09:53:37.682Z,31.19
2022-12-17T09:54:39.698Z,29.71
2022-12-17T09:55:41.522Z,26.23
2022-12-17T09:56:43.643Z,28.15
2022-12-17T09:57:45.505Z,29.42
2022-12-17T09:58:47.322Z,27.34
2022-12-17T09:59:49.143Z,30.31
2022-12-17T10:00:53.892Z,29.39
2022-12-17T10:01:54.766Z,29.78
2022-12-17T10:02:56.703Z,32.94
2022-12-17T10:03:58.782Z,32.21
2022-12-17T10:05:00.698Z,27.78
2022-12-17T10:06:02.527Z,24.79
2022-12-17T10:07:04.337Z,22.59
2022-12-17T10:08:06.181Z,26.01
2022-12-17T10:09:07.993Z,24.95
2022-12-17T10:10:10.107Z,22.84
2022-12-17T10:11:12.044Z,22.05
2022-12-17T10:12:13.852Z,22.72
2022-12-17T10:13:15.695Z,23.77
2022-12-17T10:14:17.509Z,22.59
2022-12-17T10:15:19.332Z,22.30
2022-12-17T10:16:21.268Z,21.33
2022-12-17T10:17:23.086Z,19.11
2022-12-17T10:18:24.953Z,17.44
2022-12-17T10:19:26.780Z,15.89
2022-12-17T10:20:28.899Z,14.11
2022-12-17T10:21:30.720Z,14.54
2022-12-17T10:22:32.541Z,14.03
2022-12-17T10:23:34.809Z,14.47
2022-12-17T10:24:36.804Z,14.35
2022-12-17T10:25:38.616Z,17.47
2022-12-17T10:26:40.635Z,15.32
2022-12-17T10:27:42.457Z,17.18
2022-12-17T10:28:44.334Z,15.77
2022-12-17T10:29:48.454Z,17.67
2022-12-17T10:30:50.026Z,21.69
2022-12-17T10:31:52.017Z,26.15
2022-12-17T10:32:53.817Z,27.54
2022-12-17T10:33:55.675Z,23.65
2022-12-17T10:35:04.843Z,18.43
2022-12-17T10:36:01.137Z,14.73
2022-12-17T10:37:03.053Z,14.65
2022-12-17T10:38:04.862Z,13.32
2022-12-17T10:39:06.719Z,13.35
2022-12-17T10:40:09.957Z,13.17
2022-12-17T10:41:11.777Z,13.47
2022-12-17T10:42:13.583Z,12.87
2022-12-17T10:43:15.385Z,13.10
2022-12-17T10:44:17.257Z,12.61
2022-12-17T10:45:19.093Z,12.93
2022-12-17T10:46:21.054Z,13.02
2022-12-17T10:47:22.913Z,12.79
2022-12-17T10:48:24.737Z,11.79
2022-12-17T10:49:26.584Z,13.16
2022-12-17T10:50:28.389Z,18.42
2022-12-17T10:51:30.210Z,23.61
2022-12-17T10:52:32.032Z,31.27
2022-12-17T10:53:34.217Z,41.67
2022-12-17T10:54:36.324Z,33.65
2022-12-17T10:55:38.148Z,21.86
2022-12-17T10:56:41.308Z,18.20
2022-12-17T10:57:43.143Z,16.58
2022-12-17T10:58:44.964Z,14.59
2022-12-17T10:59:46.774Z,11.98
2022-12-17T11:00:50.534Z,12.05
2022-12-17T11:03:12.059Z,12.82
2022-12-17T11:04:13.925Z,14.61
2022-12-17T11:05:15.780Z,12.84
2022-12-17T11:06:17.687Z,12.89
2022-12-17T11:07:19.517Z,11.58
2022-12-17T11:08:21.339Z,11.79
2022-12-17T11:09:23.149Z,11.49
2022-12-17T11:10:25.043Z,12.09
2022-12-17T11:11:26.833Z,11.34
2022-12-17T11:12:30.747Z,13.36
2022-12-17T11:13:32.264Z,16.84
2022-12-17T11:14:34.077Z,24.36
2022-12-17T11:15:35.978Z,26.64
2022-12-17T11:16:37.856Z,25.35
2022-12-17T11:17:39.675Z,22.18
2022-12-17T11:18:41.570Z,18.48
2022-12-17T11:19:43.381Z,17.42
2022-12-17T11:20:45.559Z,15.19
2022-12-17T11:21:48.759Z,14.89
2022-12-17T11:22:50.534Z,13.83
2022-12-17T11:23:52.332Z,13.44
2022-12-17T11:24:54.130Z,12.47
2022-12-17T11:25:55.966Z,12.75
2022-12-17T11:26:57.898Z,12.59
2022-12-17T11:27:59.737Z,11.96
2022-12-17T11:29:01.571Z,12.60
2022-12-17T11:30:03.379Z,12.99
2022-12-17T11:31:05.283Z,13.37
2022-12-17T11:32:07.044Z,12.57
2022-12-17T11:33:08.854Z,13.39
2022-12-17T11:34:10.768Z,13.97
2022-12-17T11:35:12.556Z,13.29
2022-12-17T11:36:14.422Z,13.71
2022-12-17T11:37:16.234Z,14.59
2022-12-17T11:38:18.017Z,17.58
2022-12-17T11:39:19.851Z,18.01
2022-12-17T11:40:21.897Z,19.31
2022-12-17T11:41:23.739Z,20.44
2022-12-17T11:42:25.558Z,19.95
2022-12-17T11:43:27.382Z,18.63
2022-12-17T11:44:29.200Z,19.26
2022-12-17T11:45:31.032Z,17.41
2022-12-17T11:46:32.955Z,16.47
2022-12-17T11:47:34.793Z,16.66
2022-12-17T11:48:36.833Z,15.96
2022-12-17T11:49:39.075Z,14.46
2022-12-17T11:50:41.515Z,14.41
2022-12-17T11:51:43.371Z,15.53
2022-12-17T11:52:45.495Z,13.47
2022-12-17T11:53:47.301Z,13.15
2022-12-17T11:54:49.110Z,11.63
2022-12-17T11:55:50.932Z,11.62
2022-12-17T11:56:52.899Z,12.23
2022-12-17T11:57:54.701Z,12.58
2022-12-17T11:58:56.514Z,12.55
2022-12-17T12:00:03.834Z,14.15
2022-12-17T12:01:02.086Z,14.38
2022-12-17T12:02:04.683Z,11.71
2022-12-17T12:03:07.678Z,10.42
2022-12-17T12:04:09.621Z,10.45
2022-12-17T12:05:11.675Z,11.35
2022-12-17T12:06:13.599Z,10.07
2022-12-17T12:07:16.626Z,11.35
2022-12-17T12:08:19.009Z,10.82
2022-12-17T12:09:20.835Z,11.07
2022-12-17T12:10:22.750Z,11.23
2022-12-17T12:11:29.774Z,10.81
2022-12-17T12:12:28.240Z,10.92
2022-12-17T12:13:32.619Z,11.01
2022-12-17T12:14:34.483Z,11.13
2022-12-17T12:15:36.304Z,11.11
2022-12-17T12:16:43.569Z,10.94
2022-12-17T12:17:41.990Z,10.50
2022-12-17T12:18:43.848Z,10.13
2022-12-17T12:19:45.648Z,10.81
2022-12-17T12:20:47.531Z,10.40
2022-12-17T12:21:49.355Z,10.87
2022-12-17T12:22:52.210Z,11.20
2022-12-17T12:23:54.049Z,10.46
2022-12-17T12:24:55.882Z,11.39
2022-12-17T12:25:57.709Z,11.73
2022-12-17T12:26:59.522Z,12.79
2022-12-17T12:28:01.501Z,11.69
2022-12-17T12:29:03.446Z,11.66
2022-12-17T12:30:05.706Z,12.25
2022-12-17T12:31:10.238Z,12.37
2022-12-17T12:32:12.107Z,11.36
2022-12-17T12:33:13.981Z,11.49
2022-12-17T12:34:15.791Z,10.75
2022-12-17T12:35:17.638Z,10.87
2022-12-17T12:36:19.660Z,11.41
2022-12-17T12:37:21.465Z,11.09
2022-12-17T12:38:23.314Z,11.39
2022-12-17T12:39:25.124Z,13.16
2022-12-17T12:40:27.142Z,11.58
2022-12-17T12:41:28.959Z,11.96
2022-12-17T12:42:31.001Z,10.91
2022-12-17T12:43:32.879Z,11.47
2022-12-17T12:44:34.704Z,11.22
2022-12-17T12:45:36.522Z,11.65
2022-12-17T12:46:38.320Z,12.10
2022-12-17T12:47:40.137Z,12.68
2022-12-17T12:48:41.995Z,11.47
2022-12-17T12:49:43.803Z,12.60
2022-12-17T12:50:45.626Z,12.62
2022-12-17T12:51:47.465Z,12.00
2022-12-17T12:52:49.291Z,13.03
2022-12-17T12:53:51.178Z,12.41
2022-12-17T12:54:52.986Z,12.39
2022-12-17T12:57:14.808Z,14.01
2022-12-17T12:58:16.636Z,14.00
2022-12-17T12:59:18.484Z,12.53
2022-12-17T13:00:20.296Z,12.94
2022-12-17T13:01:22.272Z,12.47
2022-12-17T13:02:25.228Z,12.69
2022-12-17T13:03:31.159Z,12.79
2022-12-17T13:04:30.757Z,13.52
2022-12-17T13:05:32.576Z,14.63
2022-12-17T13:06:34.511Z,13.31
2022-12-17T13:07:36.412Z,13.45
2022-12-17T13:08:38.780Z,13.21
2022-12-17T13:09:40.981Z,13.13
2022-12-17T13:10:43.010Z,12.47
2022-12-17T13:11:44.830Z,11.99
2022-12-17T13:12:46.629Z,12.29
2022-12-17T13:13:48.451Z,12.70
2022-12-17T13:14:50.424Z,11.81
2022-12-17T13:15:52.231Z,12.24
2022-12-17T13:16:54.302Z,12.10
2022-12-17T13:17:56.782Z,11.67
2022-12-17T13:18:58.600Z,13.09
2022-12-17T13:20:00.457Z,12.96
2022-12-17T13:21:02.272Z,13.94
2022-12-17T13:22:04.091Z,13.28
2022-12-17T13:23:05.987Z,12.73
2022-12-17T13:24:07.838Z,12.59
2022-12-17T13:25:09.700Z,12.01
2022-12-17T13:26:11.821Z,12.59
2022-12-17T13:27:13.644Z,15.60
2022-12-17T13:28:15.451Z,16.03
2022-12-17T13:29:17.774Z,15.17
2022-12-17T13:30:19.654Z,14.15
2022-12-17T13:31:21.488Z,12.53
2022-12-17T13:32:23.283Z,11.81
2022-12-17T13:33:25.116Z,11.55